createdAt,value
2022-11-16T00:02:20.130Z,72.77
2022-11-16T00:04:53.107Z,71.45
2022-11-16T00:07:25.285Z,70.58
2022-11-16T00:10:00.399Z,72.84
2022-11-16T00:12:34.270Z,73.61
2022-11-16T00:15:09.545Z,73.80
2022-11-16T00:17:42.070Z,73.21
2022-11-16T00:20:15.021Z,71.83
2022-11-16T00:22:48.208Z,68.53
2022-11-16T00:25:22.513Z,66.97
2022-11-16T00:27:59.421Z,69.42
2022-11-16T00:30:32.537Z,70.66
2022-11-16T00:33:07.339Z,71.26
2022-11-16T00:35:47.023Z,70.19
2022-11-16T00:38:22.632Z,70.22
2022-11-16T00:40:57.203Z,68.01
2022-11-16T00:43:31.739Z,67.34
2022-11-16T00:46:04.265Z,67.90
2022-11-16T00:48:37.175Z,68.34
2022-11-16T00:51:10.456Z,69.05
2022-11-16T00:53:44.548Z,69.31
2022-11-16T00:56:18.479Z,69.40
2022-11-16T00:58:52.460Z,68.84
2022-11-16T01:01:25.141Z,67.93
2022-11-16T01:03:57.422Z,66.70
2022-11-16T01:06:35.259Z,66.77
2022-11-16T01:09:07.869Z,68.48
2022-11-16T01:11:56.979Z,68.96
2022-11-16T01:14:31.866Z,69.37
2022-11-16T01:17:07.013Z,69.92
2022-11-16T01:19:40.062Z,69.65
2022-11-16T01:22:12.730Z,69.49
2022-11-16T01:24:45.622Z,67.05
2022-11-16T03:48:24.710Z,58.74
2022-11-16T03:57:40.608Z,59.03
2022-11-16T04:01:01.455Z,58.55
2022-11-16T04:03:46.094Z,58.58
2022-11-16T04:10:13.552Z,58.94
2022-11-16T04:13:12.717Z,58.75
2022-11-16T04:20:04.540Z,57.61
2022-11-16T04:23:38.335Z,57.29
2022-11-16T04:27:04.997Z,57.78
2022-11-16T04:30:07.311Z,57.73
2022-11-16T04:40:37.986Z,58.31
2022-11-16T04:49:58.253Z,56.63
2022-11-16T04:52:38.083Z,57.25
2022-11-16T04:55:31.397Z,56.35
2022-11-16T04:58:55.580Z,53.38
2022-11-16T05:06:20.886Z,55.66
2022-11-16T05:09:34.889Z,54.82
2022-11-16T05:12:37.868Z,55.13
2022-11-16T05:15:44.073Z,54.80
2022-11-16T05:18:43.809Z,53.86
2022-11-16T05:22:01.835Z,54.73
2022-11-16T05:25:36.732Z,53.65
2022-11-16T05:28:20.121Z,51.93
2022-11-16T05:31:26.233Z,50.55
2022-11-16T05:39:35.935Z,51.80
2022-11-16T05:42:12.052Z,52.88
2022-11-16T05:45:51.093Z,51.51
2022-11-16T05:49:31.728Z,52.56
2022-11-16T06:00:44.598Z,51.05
2022-11-16T06:08:37.859Z,48.66
